createdAt,value
2018-08-20T00:01:28.968Z,7.73
2018-08-20T00:03:59.763Z,9.60
2018-08-20T00:06:28.944Z,5.73
2018-08-20T00:08:57.096Z,11.23
2018-08-20T00:11:25.233Z,7.20
2018-08-20T00:13:53.429Z,8.50
2018-08-20T00:16:21.616Z,6.90
2018-08-20T00:18:49.788Z,7.03
2018-08-20T00:21:17.966Z,9.60
2018-08-20T00:23:46.090Z,6.63
2018-08-20T00:26:14.269Z,6.57
2018-08-20T00:28:42.432Z,5.60
2018-08-20T00:31:10.594Z,5.37
2018-08-20T00:33:38.794Z,6.97
2018-08-20T00:36:06.940Z,8.97
2018-08-20T00:38:35.106Z,8.20
2018-08-20T00:41:03.219Z,12.17
2018-08-20T00:43:31.382Z,6.77
2018-08-20T00:45:59.530Z,13.17
2018-08-20T00:48:27.668Z,8.10
2018-08-20T00:50:55.806Z,8.23
2018-08-20T00:53:23.955Z,8.03
2018-08-20T00:55:52.136Z,7.43
2018-08-20T00:58:20.303Z,9.13
2018-08-20T01:00:48.452Z,10.10
2018-08-20T01:03:16.655Z,8.40
2018-08-20T01:05:44.818Z,9.37
2018-08-20T01:08:12.972Z,10.33
2018-08-20T01:10:41.207Z,7.00
2018-08-20T01:13:09.402Z,7.87
2018-08-20T01:15:37.571Z,12.20
2018-08-20T01:18:05.826Z,8.20
2018-08-20T01:20:34.115Z,7.80
2018-08-20T01:23:02.253Z,9.20
2018-08-20T01:25:30.399Z,7.33
2018-08-20T01:27:58.540Z,9.60
2018-08-20T01:30:26.694Z,9.70
2018-08-20T01:33:01.276Z,9.50
2018-08-20T01:35:29.433Z,6.13
2018-08-20T01:37:57.631Z,10.83
2018-08-20T01:40:25.896Z,6.40
2018-08-20T01:42:54.051Z,11.37
2018-08-20T01:45:22.260Z,6.07
2018-08-20T01:47:50.419Z,11.03
2018-08-20T01:50:18.572Z,7.90
2018-08-20T01:52:46.761Z,9.70
2018-08-20T01:55:14.916Z,7.97
2018-08-20T01:57:43.116Z,10.80
2018-08-20T02:00:11.343Z,8.00
2018-08-20T02:02:39.485Z,9.60
2018-08-20T02:05:07.979Z,9.37
2018-08-20T02:07:36.175Z,9.50
2018-08-20T02:10:05.476Z,7.10
2018-08-20T02:12:33.668Z,10.97
2018-08-20T02:15:02.870Z,13.27
2018-08-20T02:17:31.024Z,10.97
2018-08-20T02:19:59.185Z,9.27
2018-08-20T02:22:27.379Z,8.83
2018-08-20T02:24:55.540Z,9.63
2018-08-20T02:27:23.703Z,8.37
2018-08-20T02:29:51.892Z,7.37
2018-08-20T02:32:20.041Z,10.50
2018-08-20T02:34:48.252Z,8.17
2018-08-20T02:37:16.414Z,6.70
2018-08-20T02:39:44.564Z,11.17
2018-08-20T02:42:12.729Z,8.17
2018-08-20T02:44:40.881Z,10.03
2018-08-20T02:47:09.052Z,8.80
2018-08-20T02:49:37.234Z,9.20
2018-08-20T02:52:05.592Z,9.80
2018-08-20T02:54:33.859Z,11.60
2018-08-20T02:57:02.064Z,7.80
2018-08-20T02:59:30.216Z,7.57
2018-08-20T03:01:58.373Z,12.30
2018-08-20T03:04:26.538Z,7.90
2018-08-20T03:06:54.685Z,8.20
2018-08-20T03:09:22.867Z,7.93
2018-08-20T03:11:51.079Z,9.30
2018-08-20T03:14:19.220Z,9.57
2018-08-20T03:16:47.370Z,8.13
2018-08-20T03:19:15.525Z,13.73
2018-08-20T03:21:43.668Z,8.97
2018-08-20T03:24:11.812Z,10.83
2018-08-20T03:26:39.976Z,6.10
2018-08-20T03:29:08.184Z,7.23
2018-08-20T03:31:36.473Z,9.20
2018-08-20T03:34:04.717Z,6.43
2018-08-20T03:36:32.857Z,10.87
2018-08-20T03:39:01.010Z,6.63
2018-08-20T03:41:29.159Z,6.43
2018-08-20T03:43:57.340Z,8.50
2018-08-20T03:46:25.503Z,12.03
2018-08-20T03:48:53.755Z,5.73
2018-08-20T03:51:21.897Z,8.03
2018-08-20T03:53:50.077Z,13.93
2018-08-20T03:56:18.225Z,9.73
2018-08-20T03:58:46.418Z,9.90
2018-08-20T04:01:14.569Z,13.40
2018-08-20T04:03:42.729Z,11.47
2018-08-20T04:06:10.881Z,8.70
2018-08-20T04:08:39.068Z,9.87
2018-08-20T04:11:07.200Z,7.80
2018-08-20T04:13:35.364Z,22.93
2018-08-20T04:16:03.520Z,10.33
2018-08-20T04:18:31.704Z,13.80
2018-08-20T04:21:02.905Z,9.07
2018-08-20T04:23:30.813Z,12.73
2018-08-20T04:25:58.997Z,6.63
2018-08-20T04:28:27.148Z,16.17
2018-08-20T04:30:55.311Z,11.60
2018-08-20T04:33:23.468Z,10.73
2018-08-20T04:35:51.627Z,9.33
2018-08-20T04:38:19.766Z,11.03
2018-08-20T04:40:47.927Z,12.17
2018-08-20T04:43:16.073Z,9.33
2018-08-20T04:45:44.241Z,15.90
2018-08-20T04:48:12.450Z,11.90
2018-08-20T04:50:40.680Z,11.40
2018-08-20T04:53:08.746Z,8.50
2018-08-20T04:55:36.922Z,12.57
2018-08-20T04:58:05.117Z,23.93
2018-08-20T05:00:33.260Z,13.23
2018-08-20T05:03:01.481Z,8.97
2018-08-20T05:05:29.631Z,10.73
2018-08-20T05:07:57.821Z,11.30
2018-08-20T05:10:25.967Z,13.37
2018-08-20T05:12:54.149Z,12.30
2018-08-20T05:15:22.357Z,7.70
2018-08-20T05:17:50.524Z,7.77
2018-08-20T05:20:18.665Z,10.80
2018-08-20T05:22:46.965Z,10.30
2018-08-20T05:25:15.132Z,11.57
2018-08-20T05:27:43.340Z,10.70
2018-08-20T05:30:11.548Z,10.37
2018-08-20T05:32:39.749Z,10.60
2018-08-20T05:35:07.949Z,11.87
2018-08-20T05:37:36.216Z,11.27
2018-08-20T05:40:04.552Z,10.57
2018-08-20T05:42:32.682Z,9.70
2018-08-20T05:45:00.900Z,10.70
2018-08-20T05:47:29.037Z,7.83
2018-08-20T05:49:57.237Z,10.20
2018-08-20T05:52:25.494Z,9.40
2018-08-20T05:54:53.653Z,7.67
2018-08-20T05:57:21.856Z,9.83
2018-08-20T05:59:49.990Z,9.47
2018-08-20T06:02:18.161Z,8.83
2018-08-20T06:04:46.355Z,8.47
2018-08-20T06:07:14.530Z,8.90
2018-08-20T06:09:42.696Z,13.00
2018-08-20T06:12:10.856Z,9.60
2018-08-20T06:14:39.010Z,10.83
2018-08-20T06:17:07.226Z,8.77
2018-08-20T06:19:35.408Z,10.83
2018-08-20T06:22:03.571Z,9.77
2018-08-20T06:24:31.749Z,13.20
2018-08-20T06:26:59.939Z,14.87
2018-08-20T06:29:28.145Z,11.63
2018-08-20T06:31:56.450Z,10.90
2018-08-20T06:34:24.676Z,12.20
2018-08-20T06:36:52.912Z,10.40
2018-08-20T06:39:21.241Z,9.70
2018-08-20T06:41:49.409Z,12.27
2018-08-20T06:44:17.560Z,8.70
2018-08-20T06:46:45.717Z,9.70
2018-08-20T06:49:13.912Z,13.17
2018-08-20T06:51:42.081Z,10.33
2018-08-20T06:54:10.254Z,10.57
2018-08-20T06:56:38.435Z,15.40
2018-08-20T06:59:06.689Z,12.20
2018-08-20T07:01:34.853Z,16.23
2018-08-20T07:04:03.072Z,14.30
2018-08-20T07:06:31.339Z,10.63
2018-08-20T07:08:59.498Z,9.67
2018-08-20T07:11:27.672Z,9.43
2018-08-20T07:13:55.834Z,10.83
2018-08-20T07:16:24.009Z,7.47
2018-08-20T07:18:52.776Z,9.20
2018-08-20T07:21:20.977Z,9.47
2018-08-20T07:23:49.203Z,9.80
2018-08-20T07:26:17.288Z,9.03
2018-08-20T07:28:45.506Z,11.33
2018-08-20T07:31:13.451Z,10.00
2018-08-20T07:33:41.601Z,10.40
2018-08-20T07:36:09.804Z,13.43
2018-08-20T07:38:37.977Z,7.70
2018-08-20T07:41:06.234Z,7.43
2018-08-20T07:43:34.167Z,8.80
2018-08-20T07:46:02.329Z,10.10
2018-08-20T07:48:30.565Z,10.07
2018-08-20T07:50:58.733Z,10.33
2018-08-20T07:53:26.894Z,9.57
2018-08-20T07:55:55.067Z,11.40
2018-08-20T07:58:23.243Z,6.83
2018-08-20T08:00:51.409Z,7.83
2018-08-20T08:03:28.843Z,8.40
2018-08-20T08:05:58.299Z,8.67
2018-08-20T08:08:26.530Z,11.30
2018-08-20T08:10:54.725Z,9.00
2018-08-20T08:13:23.101Z,6.47
2018-08-20T08:15:51.296Z,13.37
2018-08-20T08:18:19.420Z,9.00
2018-08-20T08:20:47.586Z,8.63
2018-08-20T08:23:15.781Z,9.37
2018-08-20T08:25:43.952Z,10.43
2018-08-20T08:28:12.106Z,10.10
2018-08-20T08:30:40.300Z,10.07
2018-08-20T08:33:08.500Z,11.33
2018-08-20T08:35:36.659Z,9.73
2018-08-20T08:38:04.865Z,10.27
2018-08-20T08:40:33.013Z,9.10
2018-08-20T08:43:01.216Z,9.30
2018-08-20T08:45:29.376Z,11.30
2018-08-20T08:47:57.533Z,10.20
2018-08-20T08:50:25.693Z,8.87
2018-08-20T08:52:53.872Z,10.57
2018-08-20T08:55:22.035Z,9.23
2018-08-20T08:57:50.207Z,10.03
2018-08-20T09:00:19.249Z,8.80
2018-08-20T09:02:47.464Z,9.13
2018-08-20T09:05:15.751Z,12.03
2018-08-20T09:07:44.084Z,10.87
2018-08-20T09:10:12.443Z,10.03
2018-08-20T09:12:40.888Z,10.53
2018-08-20T09:15:12.636Z,10.50
2018-08-20T09:17:40.828Z,10.67
2018-08-20T09:20:11.082Z,9.33
2018-08-20T09:22:39.348Z,10.60
2018-08-20T09:25:08.671Z,9.70
2018-08-20T09:27:36.813Z,11.37
2018-08-20T09:30:08.833Z,8.70
2018-08-20T09:32:44.127Z,8.97
2018-08-20T09:35:12.337Z,10.13
2018-08-20T09:37:40.520Z,8.40
2018-08-20T09:40:09.581Z,7.93
2018-08-20T09:42:38.481Z,12.50
2018-08-20T09:45:06.949Z,10.67
2018-08-20T09:47:35.673Z,10.13
2018-08-20T09:50:04.465Z,11.67
2018-08-20T09:52:32.627Z,11.50
2018-08-20T09:55:00.792Z,8.53
2018-08-20T09:57:28.937Z,9.90
2018-08-20T09:59:57.092Z,8.20
2018-08-20T10:02:25.516Z,9.53
2018-08-20T10:04:53.684Z,10.10
2018-08-20T10:07:21.896Z,11.30
2018-08-20T10:09:50.068Z,9.27
2018-08-20T10:12:18.326Z,8.73
2018-08-20T10:14:46.668Z,10.03
2018-08-20T10:17:14.846Z,8.30
2018-08-20T10:19:43.029Z,9.67
2018-08-20T10:22:11.192Z,9.57
2018-08-20T10:24:39.402Z,9.97
2018-08-20T10:27:07.578Z,8.63
2018-08-20T10:29:35.752Z,9.73
2018-08-20T10:32:03.916Z,10.00
2018-08-20T10:34:32.040Z,8.90
2018-08-20T10:37:00.265Z,8.30
2018-08-20T10:39:28.434Z,10.67
2018-08-20T10:41:56.363Z,7.00
2018-08-20T10:44:24.509Z,5.23
2018-08-20T10:46:52.708Z,7.20
2018-08-20T10:49:20.841Z,6.57
2018-08-20T10:51:48.986Z,6.33
2018-08-20T10:54:17.375Z,7.13
2018-08-20T10:56:45.523Z,5.53
2018-08-20T10:59:13.699Z,5.23
2018-08-20T11:01:41.920Z,6.47
2018-08-20T11:04:10.118Z,6.70
2018-08-20T11:06:38.257Z,7.07
2018-08-20T11:09:07.727Z,6.27
2018-08-20T11:11:35.944Z,5.77
2018-08-20T11:14:04.054Z,3.73
2018-08-20T11:16:32.220Z,5.00
2018-08-20T11:19:00.373Z,4.40
2018-08-20T11:21:28.560Z,9.80
2018-08-20T11:23:56.712Z,8.80
2018-08-20T11:26:24.896Z,6.77
2018-08-20T11:28:53.055Z,8.17
2018-08-20T11:31:21.217Z,6.53
2018-08-20T11:33:49.382Z,6.07
2018-08-20T11:36:17.550Z,8.70
2018-08-20T11:38:45.699Z,5.30
2018-08-20T11:41:13.946Z,4.80
2018-08-20T11:43:42.104Z,6.60
2018-08-20T11:46:10.270Z,6.07
2018-08-20T11:48:38.443Z,5.53
2018-08-20T11:51:07.145Z,4.93
2018-08-20T11:53:35.437Z,5.20
2018-08-20T11:56:03.719Z,9.27
2018-08-20T11:58:32.368Z,8.20
2018-08-20T12:01:00.534Z,4.53
2018-08-20T12:03:28.705Z,6.33
2018-08-20T12:05:56.878Z,5.40
2018-08-20T12:08:25.038Z,5.30
2018-08-20T12:10:53.194Z,6.93
2018-08-20T12:13:21.446Z,5.10
2018-08-20T12:15:49.636Z,6.57
2018-08-20T12:18:17.798Z,5.17
2018-08-20T12:20:45.931Z,5.07
2018-08-20T12:23:14.243Z,4.67
2018-08-20T12:25:42.288Z,4.33
2018-08-20T12:28:10.472Z,4.10
2018-08-20T12:30:38.617Z,4.00
2018-08-20T12:33:07.078Z,5.20
2018-08-20T12:35:35.294Z,4.40
2018-08-20T12:38:03.526Z,4.00
2018-08-20T12:40:31.519Z,4.70
2018-08-20T12:42:59.581Z,4.47
2018-08-20T12:45:27.774Z,5.63
2018-08-20T12:47:55.989Z,8.33
2018-08-20T12:50:24.162Z,5.57
2018-08-20T12:52:52.324Z,5.23
2018-08-20T12:55:20.489Z,3.80
2018-08-20T12:57:48.632Z,3.70
2018-08-20T13:00:16.801Z,4.10
2018-08-20T13:02:44.705Z,7.10
2018-08-20T13:05:12.884Z,5.60
2018-08-20T13:07:41.116Z,4.80
2018-08-20T13:10:09.300Z,4.40
2018-08-20T13:12:37.473Z,4.80
2018-08-20T13:15:05.854Z,4.50
2018-08-20T13:17:34.017Z,4.40
2018-08-20T13:20:02.173Z,4.70
2018-08-20T13:22:30.487Z,5.10
2018-08-20T13:24:58.642Z,5.20
2018-08-20T13:27:26.804Z,6.80
2018-08-20T13:29:54.956Z,5.73
2018-08-20T13:32:23.162Z,4.30
2018-08-20T13:34:51.351Z,4.00
2018-08-20T13:37:19.573Z,5.40
2018-08-20T13:39:47.709Z,5.73
2018-08-20T13:42:15.884Z,4.17
2018-08-20T13:44:44.060Z,4.93
2018-08-20T13:47:12.209Z,4.07
2018-08-20T13:49:40.380Z,3.33
2018-08-20T13:52:08.541Z,6.50
2018-08-20T13:54:36.693Z,4.20
2018-08-20T13:57:06.562Z,3.10
2018-08-20T13:59:34.736Z,6.37
2018-08-20T14:02:02.917Z,5.40
2018-08-20T14:04:31.053Z,4.63
2018-08-20T14:06:59.259Z,4.17
2018-08-20T14:09:27.444Z,3.37
2018-08-20T14:11:55.621Z,2.90
2018-08-20T14:14:23.808Z,4.33
2018-08-20T14:16:52.049Z,3.87
2018-08-20T14:19:20.251Z,3.67
2018-08-20T14:21:48.417Z,3.30
2018-08-20T14:24:16.641Z,3.20
2018-08-20T14:26:44.792Z,3.40
2018-08-20T14:29:12.946Z,3.20
2018-08-20T14:31:41.090Z,3.33
2018-08-20T14:34:09.236Z,4.10
2018-08-20T14:36:37.506Z,3.43
2018-08-20T14:39:06.783Z,2.60
2018-08-20T14:41:35.217Z,2.97
2018-08-20T14:44:03.520Z,6.70
2018-08-20T14:46:31.889Z,4.80
2018-08-20T14:49:00.142Z,3.33
2018-08-20T14:51:28.386Z,3.00
2018-08-20T14:53:56.607Z,3.33
2018-08-20T14:56:24.660Z,4.40
2018-08-20T14:58:53.266Z,2.90
2018-08-20T15:01:21.398Z,3.43
2018-08-20T15:03:49.541Z,4.80
2018-08-20T15:06:17.704Z,4.17
2018-08-20T15:08:45.848Z,5.63
2018-08-20T15:11:14.015Z,4.57
2018-08-20T15:13:42.188Z,5.03
2018-08-20T15:16:10.333Z,4.07
2018-08-20T15:18:38.503Z,4.00
2018-08-20T15:21:06.836Z,3.80
2018-08-20T15:23:34.993Z,3.73
2018-08-20T15:26:03.232Z,3.90
2018-08-20T15:28:31.500Z,3.43
2018-08-20T15:30:59.705Z,3.93
2018-08-20T15:33:27.880Z,4.80
2018-08-20T15:35:56.124Z,5.43
2018-08-20T15:38:24.278Z,6.17
2018-08-20T15:40:52.425Z,4.40
2018-08-20T15:43:20.621Z,3.93
2018-08-20T15:45:48.776Z,5.13
2018-08-20T15:48:16.937Z,4.37
2018-08-20T15:50:45.108Z,6.03
2018-08-20T15:53:13.270Z,7.10
2018-08-20T15:55:41.613Z,4.00
2018-08-20T15:58:09.782Z,4.90
2018-08-20T16:00:37.967Z,7.00
2018-08-20T16:03:06.608Z,4.90
2018-08-20T16:05:34.567Z,5.97
2018-08-20T16:08:02.737Z,7.20
2018-08-20T16:10:30.909Z,5.63
2018-08-20T16:12:59.068Z,5.00
2018-08-20T16:15:27.203Z,4.00
2018-08-20T16:17:55.120Z,5.20
2018-08-20T16:20:23.316Z,4.10
2018-08-20T16:22:51.517Z,3.90
2018-08-20T16:25:19.660Z,3.80
2018-08-20T16:27:47.821Z,5.60
2018-08-20T16:30:15.976Z,4.03
2018-08-20T16:32:44.176Z,3.73
2018-08-20T16:35:13.140Z,3.67
2018-08-20T16:37:42.434Z,4.80
2018-08-20T16:40:10.613Z,5.87
2018-08-20T16:42:38.872Z,4.43
2018-08-20T16:45:08.028Z,3.67
2018-08-20T16:47:36.208Z,4.40
2018-08-20T16:50:06.116Z,5.33
2018-08-20T16:52:34.268Z,4.13
2018-08-20T16:55:02.445Z,4.00
2018-08-20T16:57:30.629Z,7.87
2018-08-20T16:59:58.845Z,5.00
2018-08-20T17:02:30.152Z,5.20
2018-08-20T17:04:58.360Z,4.33
2018-08-20T17:07:26.506Z,5.40
2018-08-20T17:09:54.658Z,5.20
2018-08-20T17:12:22.795Z,4.53
2018-08-20T17:14:50.967Z,5.80
2018-08-20T17:17:19.096Z,4.53
2018-08-20T17:19:47.309Z,4.20
2018-08-20T17:22:15.812Z,4.70
2018-08-20T17:24:43.946Z,4.70
2018-08-20T17:27:12.576Z,5.27
2018-08-20T17:29:40.778Z,4.27
2018-08-20T17:32:09.735Z,4.80
2018-08-20T17:34:40.276Z,4.43
2018-08-20T17:37:08.524Z,4.63
2018-08-20T17:39:51.189Z,3.33
2018-08-20T17:42:19.370Z,6.63
2018-08-20T17:44:47.505Z,3.53
2018-08-20T17:47:19.903Z,3.50
2018-08-20T17:49:48.077Z,4.93
2018-08-20T17:52:16.232Z,4.13
2018-08-20T17:54:44.377Z,4.13
2018-08-20T17:57:12.611Z,3.70
2018-08-20T18:02:22.510Z,5.43
2018-08-20T18:04:50.915Z,3.77
2018-08-20T18:07:19.039Z,4.33
2018-08-20T18:09:47.194Z,3.03
2018-08-20T18:12:15.373Z,3.07
2018-08-20T18:14:44.189Z,3.50
2018-08-20T18:17:12.429Z,3.50
2018-08-20T18:19:40.517Z,3.13
2018-08-20T18:22:08.757Z,3.90
2018-08-20T18:24:36.921Z,3.17
2018-08-20T18:27:05.087Z,3.20
2018-08-20T18:29:33.343Z,5.13
2018-08-20T18:32:02.985Z,3.77
2018-08-20T18:34:31.176Z,6.73
2018-08-20T18:37:02.442Z,4.30
2018-08-20T18:39:30.585Z,8.77
2018-08-20T18:42:01.777Z,9.00
2018-08-20T18:44:29.938Z,6.00
2018-08-20T18:46:58.104Z,9.47
2018-08-20T18:49:26.241Z,6.93
2018-08-20T18:52:12.532Z,6.17
2018-08-20T18:54:42.986Z,4.83
2018-08-20T18:57:15.888Z,6.73
2018-08-20T18:59:44.052Z,10.37
2018-08-20T19:02:19.747Z,6.90
2018-08-20T19:04:48.251Z,6.47
2018-08-20T19:07:16.725Z,6.17
2018-08-20T19:09:47.965Z,6.70
2018-08-20T19:12:16.246Z,6.03
2018-08-20T19:14:44.421Z,6.70
2018-08-20T19:17:16.852Z,5.50
2018-08-20T19:19:47.276Z,9.23
2018-08-20T19:22:20.901Z,6.50
2018-08-20T19:24:49.076Z,10.83
2018-08-20T19:27:17.260Z,5.30
2018-08-20T19:29:45.449Z,7.07
2018-08-20T19:32:13.620Z,5.60
2018-08-20T19:34:41.763Z,6.80
2018-08-20T19:37:09.924Z,6.30
2018-08-20T19:39:38.073Z,6.40
2018-08-20T19:42:06.830Z,6.73
2018-08-20T19:44:34.993Z,6.43
2018-08-20T19:47:03.137Z,5.63
2018-08-20T19:49:31.349Z,6.10
2018-08-20T19:51:59.481Z,7.17
2018-08-20T19:54:27.966Z,8.57
2018-08-20T19:56:56.098Z,5.20
2018-08-20T19:59:29.678Z,6.20
2018-08-20T20:01:57.846Z,6.60
2018-08-20T20:04:26.005Z,4.83
2018-08-20T20:06:54.182Z,7.00
2018-08-20T20:09:22.334Z,4.97
2018-08-20T20:11:51.723Z,5.60
2018-08-20T20:14:19.868Z,7.13
2018-08-20T20:16:53.212Z,4.50
2018-08-20T20:19:21.531Z,6.83
2018-08-20T20:21:49.689Z,5.60
2018-08-20T20:24:17.893Z,6.50
2018-08-20T20:26:46.111Z,6.37
2018-08-20T20:29:14.338Z,9.67
2018-08-20T20:31:43.094Z,5.77
2018-08-20T20:34:11.320Z,5.43
2018-08-20T20:36:39.559Z,4.93
2018-08-20T20:39:10.260Z,6.23
2018-08-20T20:41:38.433Z,5.30
2018-08-20T20:44:07.349Z,6.93
2018-08-20T20:46:35.519Z,5.37
2018-08-20T20:49:03.681Z,7.40
2018-08-20T20:51:31.843Z,8.20
2018-08-20T20:54:00.053Z,6.93
2018-08-20T20:56:28.233Z,8.00
2018-08-20T20:58:56.380Z,4.80
2018-08-20T21:01:24.538Z,4.97
2018-08-20T21:03:52.700Z,6.50
2018-08-20T21:06:20.896Z,5.90
2018-08-20T21:08:49.662Z,6.93
2018-08-20T21:11:18.957Z,6.23
2018-08-20T21:13:47.348Z,5.07
2018-08-20T21:16:16.892Z,4.90
2018-08-20T21:18:48.879Z,5.23
2018-08-20T21:21:17.957Z,4.63
2018-08-20T21:23:46.204Z,4.20
2018-08-20T21:26:14.472Z,5.27
2018-08-20T21:28:45.688Z,6.13
2018-08-20T21:31:14.900Z,7.93
2018-08-20T21:33:43.617Z,5.83
2018-08-20T21:36:12.503Z,5.37
2018-08-20T21:38:40.789Z,4.53
2018-08-20T21:41:08.973Z,5.10
2018-08-20T21:43:42.625Z,4.93
2018-08-20T21:46:11.501Z,4.73
2018-08-20T21:48:40.048Z,6.50
2018-08-20T21:51:28.671Z,5.10
2018-08-20T21:53:57.155Z,6.83
2018-08-20T21:56:29.800Z,5.37
2018-08-20T21:58:58.015Z,6.90
2018-08-20T22:01:26.193Z,6.80
2018-08-20T22:03:54.394Z,5.80
2018-08-20T22:06:22.549Z,6.87
2018-08-20T22:08:50.733Z,6.87
2018-08-20T22:11:18.922Z,8.43
2018-08-20T22:13:47.104Z,7.50
2018-08-20T22:16:18.740Z,6.47
2018-08-20T22:18:51.212Z,7.83
2018-08-20T22:21:19.378Z,7.77
2018-08-20T22:23:47.653Z,6.30
2018-08-20T22:26:18.323Z,6.20
2018-08-20T22:28:48.680Z,6.03
2018-08-20T22:31:16.945Z,6.30
2018-08-20T22:33:52.337Z,6.50
2018-08-20T22:36:20.496Z,7.27
2018-08-20T22:38:52.493Z,8.70
2018-08-20T22:41:21.480Z,7.40
2018-08-20T22:43:49.991Z,7.30
2018-08-20T22:46:18.992Z,8.80
2018-08-20T22:48:53.375Z,8.50
2018-08-20T22:51:22.139Z,8.10
2018-08-20T22:53:51.520Z,8.03
2018-08-20T22:56:28.837Z,7.87
2018-08-20T22:58:59.572Z,8.97
2018-08-20T23:01:27.788Z,9.30
2018-08-20T23:03:55.936Z,9.13
2018-08-20T23:06:24.356Z,8.00
2018-08-20T23:08:52.561Z,9.03
2018-08-20T23:11:36.978Z,9.83
2018-08-20T23:14:05.917Z,7.80
2018-08-20T23:16:34.121Z,8.37
2018-08-20T23:19:02.387Z,8.47
2018-08-20T23:21:47.781Z,9.50
2018-08-20T23:24:16.706Z,9.83
2018-08-20T23:26:44.857Z,8.47
2018-08-20T23:29:13.041Z,9.90
2018-08-20T23:31:41.563Z,9.63
2018-08-20T23:34:11.923Z,9.33
2018-08-20T23:36:40.596Z,7.10
2018-08-20T23:39:10.620Z,11.63
2018-08-20T23:41:39.013Z,8.40
2018-08-20T23:44:07.497Z,10.40
2018-08-20T23:46:42.274Z,7.50
2018-08-20T23:49:10.465Z,9.20
2018-08-20T23:51:38.660Z,7.00
2018-08-20T23:54:06.827Z,9.67
2018-08-20T23:56:34.982Z,8.20
2018-08-20T23:59:03.165Z,14.10
